Oakgrove, Arkansas
Current Conditions -  °F | °C
As of 8:53 PM on Wednesday 26 Nov 2014 (Local Time) from KRUE Reporting Station
Clear Clear  
Wind Chill: 42°   Ceiling: Unl
Heat Index: 47°   Visibility: 10mi
Dew Point: 26°   Wind: 10mph
Humidity: 44%   Direction: 290°WNW
Pressure: 30.22"   Gusts: NA
Location:  35.0362°N, 92.6967°W
Report Text: KRUE 270253Z AUTO 29009KT 10SM CLR 08/M03 A3022 RMK AO2 SLP232 T00831033 53030
Loading
Personal Weather Stations






























Interactive Weather Map New forecast layout! Learn more

10-Day Weather Forecast

Advertisements
Track Severe Weather on mobile